Kaministiqua — CFN4612 — position and weather

sailwx.info

Track history (hours):
 
Tides and Currents Weather Stations Pressure Air Temp Water Temp Dewpoint Dewpoint Depression Visibility Wind Speed Wind Dir Waves Ship Positions

Kaministiqua

Last reported at 2015-Aug-03 11:14 UTC. Time now 2015-Aug-04 09:45 UTC.
Position N 46°42' W 084°49'.

Length 223 m; draft 7.1 m.

Type: Cargo ship. MMSI: 316009457.

Date/timePositionNaut miles runAvg speedWind from/ knotsBaromVisibWave heightAir tempDewpointWater temp
2015-Aug-03 11:14N 46°42' W 084°49'812.2
2015-Aug-03 10:33N 46°35' W 084°42'1111.1
2015-Aug-03 09:33N 46°27' W 084°31'21 5.2
2015-Aug-03 05:33N 46°15' W 084°06'9 9.0
2015-Aug-03 04:31N 46°06' W 084°01'9 9.5
2015-Aug-03 03:32N 45°58' W 083°53'1412.0
2015-Aug-03 02:21N 45°46' W 083°43'2812.3
2015-Aug-03 00:05N 45°23' W 083°21'712.6
2015-Aug-02 23:33N 45°18' W 083°15'220 5.9
2015-Aug-01 10:31N 42°37' W 079°47'1312.3
2015-Aug-01 09:29N 42°44' W 079°33'21 7.1
2015-Aug-01 06:32N 42°59' W 079°13'7 7.5
2015-Aug-01 05:34N 43°06' W 079°12'2 1.5
2015-Aug-01 04:33N 43°08' W 079°12'0 0.2
2015-Aug-01 03:34N 43°08' W 079°12'1 0.8
2015-Aug-01 02:34N 43°09' W 079°12'1 1.4
2015-Aug-01 01:34N 43°10' W 079°12'2 1.5
2015-Aug-01 00:34N 43°12' W 079°12'1 1.4
2015-Jul-31 23:34N 43°13' W 079°13'3 3.2
2015-Jul-31 22:34N 43°16' W 079°13'1111.2
2015-Jul-31 21:33N 43°24' W 079°02'1712.0
2015-Jul-31 20:10N 43°29' W 078°40'225 8.8
2015-Jul-30 18:31N 45°14' W 074°01'6 6.4
2015-Jul-30 17:33N 45°18' W 073°56'1 0.9
2015-Jul-30 16:32N 45°19' W 073°55'4 3.9
2015-Jul-30 15:33N 45°21' W 073°51'8 8.3
2015-Jul-30 14:33N 45°25' W 073°40'4 4.2
2015-Jul-30 13:33N 45°24' W 073°34'34 5.6
2015-Jul-30 07:32N 45°55' W 073°13'9 0.5
2015-Jul-29 12:33N 46°03' W 073°07'0 0.0
2015-Jul-29 10:16N 46°03' W 073°07'0 0.0
2015-Jul-29 09:33N 46°03' W 073°07'0 0.0
2015-Jul-28 15:32N 46°03' W 073°07'39 0.8
2015-Jul-26 14:20N 45°27' W 073°30'4 4.6
2015-Jul-26 13:28N 45°24' W 073°34'1 1.0
2015-Jul-26 12:33N 45°24' W 073°35'5 5.0
2015-Jul-26 11:33N 45°25' W 073°42'1010.4
2015-Jul-26 10:33N 45°19' W 073°55'1 1.3
2015-Jul-26 09:33N 45°18' W 073°56'1 1.3
2015-Jul-26 08:29N 45°17' W 073°56'5 5.2
2015-Jul-26 07:32N 45°14' W 074°02'121 8.7
2015-Jul-25 17:31N 44°06' W 076°24'0 0.1
2015-Jul-25 16:34N 44°06' W 076°24'8711.7
2015-Jul-25 09:08N 43°31' W 078°14'712.5
2015-Jul-25 08:33N 43°29' W 078°24'1312.6
2015-Jul-25 07:33N 43°25' W 078°40'1312.6
2015-Jul-25 06:33N 43°22' W 078°57'1212.2
2015-Jul-25 05:33N 43°16' W 079°12'3 3.2
2015-Jul-25 04:33N 43°13' W 079°13'2 1.5
2015-Jul-25 03:33N 43°12' W 079°12'1 1.2
2015-Jul-25 02:33N 43°10' W 079°12'1 1.1
2015-Jul-25 01:33N 43°09' W 079°12'1 1.0
2015-Jul-25 00:33N 43°08' W 079°12'0 0.2
2015-Jul-24 23:33N 43°08' W 079°12'0 0.3
2015-Jul-24 22:33N 43°08' W 079°12'1 0.6
2015-Jul-24 21:33N 43°07' W 079°12'3 3.0
2015-Jul-24 20:33N 43°04' W 079°13'15 4.6
2015-Jul-24 17:15N 42°49' W 079°17'911.9
2015-Jul-24 16:30N 42°44' W 079°27'2312.0
2015-Jul-24 14:33N 42°30' W 079°52'1211.8
2015-Jul-24 13:33N 42°25' W 080°06'2512.1
2015-Jul-24 11:27N 42°16' W 080°39'  
Track history (hours):
 
Tides and Currents Weather Stations Pressure Air Temp Water Temp Dewpoint Dewpoint Depression Visibility Wind Speed Wind Dir Waves Ship Positions

Kaministiqua

Last reported at 2015-Aug-03 11:14 UTC. Time now 2015-Aug-04 09:45 UTC.
Position N 46°42' W 084°49'.

Length 223 m; draft 7.1 m.

Type: Cargo ship. MMSI: 316009457.

Date/timePositionNaut miles runAvg speedWind from/ knotsBaromVisibWave heightAir tempDewpointWater temp
2015-Aug-03 11:14N 46°42' W 084°49'812.2
2015-Aug-03 10:33N 46°35' W 084°42'1111.1
2015-Aug-03 09:33N 46°27' W 084°31'21 5.2
2015-Aug-03 05:33N 46°15' W 084°06'9 9.0
2015-Aug-03 04:31N 46°06' W 084°01'9 9.5
2015-Aug-03 03:32N 45°58' W 083°53'1412.0
2015-Aug-03 02:21N 45°46' W 083°43'2812.3
2015-Aug-03 00:05N 45°23' W 083°21'712.6
2015-Aug-02 23:33N 45°18' W 083°15'220 5.9
2015-Aug-01 10:31N 42°37' W 079°47'1312.3
2015-Aug-01 09:29N 42°44' W 079°33'21 7.1
2015-Aug-01 06:32N 42°59' W 079°13'7 7.5
2015-Aug-01 05:34N 43°06' W 079°12'2 1.5
2015-Aug-01 04:33N 43°08' W 079°12'0 0.2
2015-Aug-01 03:34N 43°08' W 079°12'1 0.8
2015-Aug-01 02:34N 43°09' W 079°12'1 1.4
2015-Aug-01 01:34N 43°10' W 079°12'2 1.5
2015-Aug-01 00:34N 43°12' W 079°12'1 1.4
2015-Jul-31 23:34N 43°13' W 079°13'3 3.2
2015-Jul-31 22:34N 43°16' W 079°13'1111.2
2015-Jul-31 21:33N 43°24' W 079°02'1712.0
2015-Jul-31 20:10N 43°29' W 078°40'225 8.8
2015-Jul-30 18:31N 45°14' W 074°01'6 6.4
2015-Jul-30 17:33N 45°18' W 073°56'1 0.9
2015-Jul-30 16:32N 45°19' W 073°55'4 3.9
2015-Jul-30 15:33N 45°21' W 073°51'8 8.3
2015-Jul-30 14:33N 45°25' W 073°40'4 4.2
2015-Jul-30 13:33N 45°24' W 073°34'34 5.6
2015-Jul-30 07:32N 45°55' W 073°13'9 0.5
2015-Jul-29 12:33N 46°03' W 073°07'0 0.0
2015-Jul-29 10:16N 46°03' W 073°07'0 0.0
2015-Jul-29 09:33N 46°03' W 073°07'0 0.0
2015-Jul-28 15:32N 46°03' W 073°07'39 0.8
2015-Jul-26 14:20N 45°27' W 073°30'4 4.6
2015-Jul-26 13:28N 45°24' W 073°34'1 1.0
2015-Jul-26 12:33N 45°24' W 073°35'5 5.0
2015-Jul-26 11:33N 45°25' W 073°42'1010.4
2015-Jul-26 10:33N 45°19' W 073°55'1 1.3
2015-Jul-26 09:33N 45°18' W 073°56'1 1.3
2015-Jul-26 08:29N 45°17' W 073°56'5 5.2
2015-Jul-26 07:32N 45°14' W 074°02'121 8.7
2015-Jul-25 17:31N 44°06' W 076°24'0 0.1
2015-Jul-25 16:34N 44°06' W 076°24'8711.7
2015-Jul-25 09:08N 43°31' W 078°14'712.5
2015-Jul-25 08:33N 43°29' W 078°24'1312.6
2015-Jul-25 07:33N 43°25' W 078°40'1312.6
2015-Jul-25 06:33N 43°22' W 078°57'1212.2
2015-Jul-25 05:33N 43°16' W 079°12'3 3.2
2015-Jul-25 04:33N 43°13' W 079°13'2 1.5
2015-Jul-25 03:33N 43°12' W 079°12'1 1.2
2015-Jul-25 02:33N 43°10' W 079°12'1 1.1
2015-Jul-25 01:33N 43°09' W 079°12'1 1.0
2015-Jul-25 00:33N 43°08' W 079°12'0 0.2
2015-Jul-24 23:33N 43°08' W 079°12'0 0.3
2015-Jul-24 22:33N 43°08' W 079°12'1 0.6
2015-Jul-24 21:33N 43°07' W 079°12'3 3.0
2015-Jul-24 20:33N 43°04' W 079°13'15 4.6
2015-Jul-24 17:15N 42°49' W 079°17'911.9
2015-Jul-24 16:30N 42°44' W 079°27'2312.0
2015-Jul-24 14:33N 42°30' W 079°52'1211.8
2015-Jul-24 13:33N 42°25' W 080°06'2512.1
2015-Jul-24 11:27N 42°16' W 080°39'  

Dump ship's entire track history